createdAt,value
2023-03-12T00:00:08.525Z,72.59
2023-03-12T00:02:38.549Z,72.23
2023-03-12T00:05:09.119Z,72.85
2023-03-12T00:07:39.338Z,72.19
2023-03-12T00:10:10.810Z,71.99
2023-03-12T00:12:39.855Z,72.05
2023-03-12T00:15:11.946Z,72.14
2023-03-12T00:17:43.334Z,71.68
2023-03-12T00:20:16.636Z,71.82
2023-03-12T00:22:45.432Z,71.64
2023-03-12T00:25:17.355Z,71.24
2023-03-12T00:27:49.393Z,71.19
2023-03-12T00:30:19.775Z,70.52
2023-03-12T00:32:49.411Z,70.42
2023-03-12T00:35:18.109Z,70.23
2023-03-12T00:37:52.151Z,70.37
2023-03-12T00:40:24.036Z,71.16
2023-03-12T00:42:52.900Z,70.23
2023-03-12T00:45:22.692Z,70.42
2023-03-12T00:47:54.475Z,70.20
2023-03-12T00:50:24.245Z,70.34
2023-03-12T00:52:53.431Z,70.58
2023-03-12T00:55:23.911Z,70.61
2023-03-12T00:57:53.499Z,70.77
2023-03-12T01:00:23.142Z,70.31
2023-03-12T01:02:51.926Z,69.63
2023-03-12T01:05:20.616Z,69.63
2023-03-12T01:07:48.893Z,69.93
2023-03-12T01:10:21.528Z,69.67
2023-03-12T01:12:51.565Z,69.27
2023-03-12T01:15:23.479Z,69.17
2023-03-12T01:17:52.357Z,69.35
2023-03-12T01:20:23.405Z,68.82
2023-03-12T01:22:52.569Z,69.78
2023-03-12T01:25:20.921Z,69.34
2023-03-12T01:27:51.608Z,69.16
2023-03-12T01:30:20.424Z,68.58
2023-03-12T01:32:48.937Z,68.51
2023-03-12T01:35:17.580Z,68.52
2023-03-12T01:37:46.992Z,68.29
2023-03-12T01:40:17.230Z,68.46
2023-03-12T01:42:52.668Z,68.39
2023-03-12T01:46:01.003Z,68.68
2023-03-12T01:48:35.565Z,68.82
2023-03-12T01:51:04.436Z,68.92
2023-03-12T01:53:34.779Z,68.76
2023-03-12T01:56:05.085Z,69.26
2023-03-12T01:58:35.840Z,68.95
2023-03-12T02:01:06.001Z,69.28
2023-03-12T02:03:35.959Z,68.44
2023-03-12T02:06:10.187Z,68.49
2023-03-12T02:08:42.938Z,68.89
2023-03-12T02:11:11.595Z,69.07
2023-03-12T02:13:41.945Z,68.89
2023-03-12T02:16:13.893Z,68.47
2023-03-12T02:18:42.942Z,68.75
2023-03-12T02:21:18.597Z,68.98
2023-03-12T02:23:57.312Z,68.58
2023-03-12T02:26:30.932Z,69.19
2023-03-12T02:29:01.538Z,69.00
2023-03-12T02:31:37.679Z,69.47
2023-03-12T02:34:06.255Z,68.67
2023-03-12T02:36:34.648Z,69.42
2023-03-12T02:39:03.792Z,69.53
2023-03-12T02:41:37.703Z,69.56
2023-03-12T02:44:10.042Z,70.52
2023-03-12T02:46:42.941Z,70.25
2023-03-12T02:49:13.743Z,70.86
2023-03-12T02:51:42.767Z,70.62
2023-03-12T02:54:14.967Z,70.96
2023-03-12T02:56:44.587Z,70.60
2023-03-12T02:59:14.367Z,71.08
2023-03-12T03:01:43.507Z,71.23
2023-03-12T03:04:14.020Z,71.49
2023-03-12T03:06:45.583Z,72.18
2023-03-12T03:09:14.153Z,72.20
2023-03-12T03:11:44.062Z,71.52
2023-03-12T03:14:12.728Z,71.95
2023-03-12T03:16:41.391Z,72.05
2023-03-12T03:19:11.366Z,72.55
2023-03-12T03:21:40.700Z,73.02
2023-03-12T03:24:09.592Z,72.76
2023-03-12T03:26:41.272Z,73.13
2023-03-12T03:29:11.524Z,73.34
2023-03-12T03:31:40.942Z,74.27
2023-03-12T03:34:09.494Z,74.30
2023-03-12T03:36:37.844Z,74.55
2023-03-12T03:39:07.216Z,75.15
2023-03-12T03:41:35.739Z,74.63
2023-03-12T03:44:05.511Z,75.54
2023-03-12T03:46:35.637Z,75.82
2023-03-12T03:49:05.940Z,76.01
2023-03-12T03:51:34.501Z,76.30
2023-03-12T03:54:04.340Z,76.68
2023-03-12T03:56:34.330Z,77.07
2023-03-12T03:59:04.297Z,78.46
2023-03-12T04:01:32.535Z,78.61
2023-03-12T04:04:02.737Z,78.83
2023-03-12T04:06:32.375Z,78.39
2023-03-12T04:09:01.446Z,77.70
2023-03-12T04:11:30.868Z,77.80
2023-03-12T04:13:59.358Z,78.04
2023-03-12T04:16:28.243Z,78.64
2023-03-12T04:18:58.030Z,78.74
2023-03-12T04:21:28.501Z,78.77
2023-03-12T04:23:56.877Z,78.65
2023-03-12T04:26:25.746Z,78.65
2023-03-12T04:28:57.379Z,79.18
2023-03-12T04:31:28.030Z,79.83
2023-03-12T04:33:58.350Z,79.74
2023-03-12T04:36:32.568Z,79.79
2023-03-12T04:39:01.674Z,80.22
2023-03-12T04:41:31.388Z,80.23
2023-03-12T04:44:00.445Z,80.31
2023-03-12T04:46:33.290Z,80.00
2023-03-12T04:49:03.365Z,80.00
2023-03-12T04:51:35.768Z,79.97
2023-03-12T04:54:04.420Z,79.81
2023-03-12T04:56:33.255Z,79.92
2023-03-12T04:59:03.279Z,79.85
2023-03-12T05:01:34.018Z,80.83
2023-03-12T05:04:04.162Z,80.20
2023-03-12T05:06:34.982Z,80.49
2023-03-12T05:09:04.197Z,80.63
2023-03-12T05:11:34.369Z,80.49
2023-03-12T05:14:06.724Z,80.46
2023-03-12T05:16:35.418Z,80.80
2023-03-12T05:19:05.301Z,80.95
2023-03-12T05:21:35.073Z,81.16
2023-03-12T05:24:05.855Z,81.39
2023-03-12T05:26:35.253Z,81.59
2023-03-12T05:29:07.015Z,81.69
2023-03-12T05:31:36.915Z,81.66
2023-03-12T05:34:07.324Z,81.84
2023-03-12T05:36:37.529Z,82.09
2023-03-12T05:39:07.518Z,82.32
2023-03-12T05:41:36.109Z,82.77
2023-03-12T05:44:04.548Z,82.66
2023-03-12T05:46:33.436Z,82.88
2023-03-12T05:49:04.561Z,82.78
2023-03-12T05:51:33.749Z,82.86
2023-03-12T05:54:04.668Z,82.87
2023-03-12T05:56:33.983Z,83.17
2023-03-12T05:59:03.402Z,83.31
2023-03-12T06:01:34.968Z,83.48
2023-03-12T06:04:03.305Z,83.17
2023-03-12T06:06:31.842Z,83.14
2023-03-12T06:09:00.875Z,83.12
2023-03-12T06:11:32.264Z,82.85
2023-03-12T06:14:01.876Z,82.66
2023-03-12T06:16:30.710Z,82.76
2023-03-12T06:19:01.558Z,82.89
2023-03-12T06:21:32.630Z,82.42
2023-03-12T06:24:02.326Z,82.35
2023-03-12T06:26:36.565Z,81.87
2023-03-12T06:29:04.800Z,82.06
2023-03-12T06:31:35.505Z,81.53
2023-03-12T06:34:07.305Z,81.56
2023-03-12T06:36:37.645Z,81.13
2023-03-12T06:39:08.714Z,80.64
2023-03-12T06:41:43.532Z,80.22
2023-03-12T06:44:12.377Z,79.83
2023-03-12T06:46:44.096Z,79.49
2023-03-12T06:49:14.591Z,78.97
2023-03-12T06:51:42.708Z,79.19
2023-03-12T06:54:10.887Z,78.74
2023-03-12T06:56:43.130Z,78.48
2023-03-12T06:59:11.619Z,78.73
2023-03-12T07:01:40.070Z,78.47
2023-03-12T07:04:09.980Z,77.89
2023-03-12T07:06:39.545Z,77.36
2023-03-12T07:09:11.880Z,77.12
2023-03-12T07:11:42.101Z,76.80
2023-03-12T07:14:11.687Z,76.30
2023-03-12T07:16:40.133Z,76.04
2023-03-12T07:19:09.971Z,75.97
2023-03-12T07:21:40.838Z,75.64
2023-03-12T07:24:10.729Z,75.08
2023-03-12T07:26:40.031Z,74.66
2023-03-12T07:29:12.768Z,74.15
2023-03-12T07:31:45.500Z,74.50
2023-03-12T07:34:14.332Z,73.24
2023-03-12T07:36:43.186Z,72.82
2023-03-12T07:39:11.646Z,72.54
2023-03-12T07:41:42.658Z,72.80
2023-03-12T07:44:12.706Z,72.61
2023-03-12T07:46:41.268Z,71.99
2023-03-12T07:49:11.304Z,71.91
2023-03-12T07:51:39.829Z,71.77
2023-03-12T07:54:08.675Z,71.47
2023-03-12T07:56:37.056Z,71.82
2023-03-12T07:59:06.892Z,71.20
2023-03-12T08:01:37.150Z,71.09
2023-03-12T08:04:06.329Z,71.29
2023-03-12T08:06:34.987Z,70.68
2023-03-12T08:09:03.445Z,70.36
2023-03-12T08:11:33.955Z,70.15
2023-03-12T08:14:02.247Z,69.88
2023-03-12T08:16:31.158Z,70.04
2023-03-12T08:19:01.790Z,69.60
2023-03-12T08:21:32.686Z,69.02
2023-03-12T08:24:01.872Z,67.88
2023-03-12T08:26:35.742Z,66.59
2023-03-12T08:29:04.241Z,66.05
2023-03-12T08:31:33.550Z,66.34
2023-03-12T08:34:03.347Z,66.77
2023-03-12T08:36:31.911Z,65.36
2023-03-12T08:39:00.595Z,64.51
2023-03-12T08:41:31.791Z,64.48
2023-03-12T08:44:00.919Z,63.96
2023-03-12T08:46:29.640Z,63.54
2023-03-12T08:48:58.451Z,63.74
2023-03-12T08:51:29.482Z,63.52
2023-03-12T08:54:01.873Z,63.69
2023-03-12T08:56:30.235Z,63.30
2023-03-12T08:59:01.471Z,62.47
2023-03-12T09:01:31.651Z,62.41
2023-03-12T09:04:00.041Z,61.49
2023-03-12T09:06:35.791Z,61.06
2023-03-12T09:09:05.893Z,60.89
2023-03-12T09:11:35.978Z,60.86
2023-03-12T09:16:55.580Z,60.76
2023-03-12T09:19:25.126Z,59.85
2023-03-12T09:21:57.761Z,59.90
2023-03-12T09:24:27.360Z,59.97
2023-03-12T09:26:55.692Z,59.62
2023-03-12T09:29:25.942Z,57.50
2023-03-12T09:31:57.292Z,57.50
2023-03-12T09:34:26.489Z,56.76
2023-03-12T09:36:57.111Z,56.87
2023-03-12T09:39:26.283Z,56.12
2023-03-12T09:41:56.703Z,56.19
2023-03-12T09:44:33.750Z,56.56
2023-03-12T09:47:06.693Z,55.65
2023-03-12T09:49:41.200Z,56.50
2023-03-12T09:52:23.788Z,54.86
2023-03-12T09:55:01.105Z,53.79
2023-03-12T09:57:30.751Z,54.92
2023-03-12T10:00:00.288Z,54.95
2023-03-12T10:02:51.918Z,54.73
2023-03-12T10:05:27.836Z,52.74
2023-03-12T10:08:13.733Z,52.97
2023-03-12T10:10:56.328Z,50.85
2023-03-12T10:13:46.624Z,49.75
2023-03-12T10:16:32.548Z,47.45
2023-03-12T10:19:14.338Z,46.87
2023-03-12T10:21:51.643Z,48.30
2023-03-12T10:24:34.071Z,46.95
2023-03-12T10:27:09.666Z,46.44
2023-03-12T10:29:44.692Z,46.15
2023-03-12T10:32:20.914Z,46.53
2023-03-12T10:34:55.659Z,46.91
2023-03-12T10:37:27.377Z,44.86
2023-03-12T10:39:57.465Z,45.75
2023-03-12T10:42:28.855Z,45.51
2023-03-12T10:45:01.169Z,42.73
2023-03-12T10:47:36.403Z,42.14
2023-03-12T10:50:18.523Z,43.16
2023-03-12T10:52:49.076Z,43.76
2023-03-12T10:55:26.365Z,43.39
2023-03-12T10:57:54.918Z,43.28
2023-03-12T11:00:26.476Z,41.93
2023-03-12T11:03:00.620Z,42.17
2023-03-12T11:05:33.199Z,41.98
2023-03-12T11:08:03.434Z,41.00
2023-03-12T11:10:48.689Z,40.31
2023-03-12T11:13:29.224Z,39.85
2023-03-12T11:15:58.918Z,39.51
2023-03-12T11:18:36.794Z,39.56
2023-03-12T11:21:18.774Z,40.67
2023-03-12T11:24:09.086Z,40.49
2023-03-12T11:26:49.396Z,41.02
2023-03-12T11:29:28.424Z,42.96
2023-03-12T11:32:06.067Z,42.28
2023-03-12T11:34:38.547Z,41.58
2023-03-12T11:37:14.211Z,41.11
2023-03-12T11:40:01.516Z,41.02
2023-03-12T11:42:40.490Z,40.57
2023-03-12T11:45:19.478Z,41.35
2023-03-12T11:48:00.661Z,40.80
2023-03-12T11:50:42.857Z,42.08
2023-03-12T11:53:23.092Z,42.22
2023-03-12T11:56:00.949Z,40.91
2023-03-12T11:58:46.785Z,39.07
2023-03-12T12:01:28.678Z,40.29
2023-03-12T12:04:12.247Z,38.70
2023-03-12T12:06:52.677Z,39.49
2023-03-12T12:09:33.993Z,39.92
2023-03-12T12:12:18.880Z,40.37
2023-03-12T12:15:10.483Z,40.05
2023-03-12T12:17:50.243Z,40.35
2023-03-12T12:20:29.006Z,39.01
2023-03-12T12:23:10.748Z,40.46
2023-03-12T12:25:50.710Z,39.43
2023-03-12T12:28:47.680Z,39.49
2023-03-12T12:31:32.222Z,39.26
2023-03-12T12:34:30.856Z,38.49
2023-03-12T12:37:11.315Z,40.42
2023-03-12T12:39:46.989Z,39.64
2023-03-12T12:42:20.807Z,39.19
2023-03-12T12:44:52.483Z,38.97
2023-03-12T12:47:33.035Z,37.15
2023-03-12T12:50:02.990Z,35.82
2023-03-12T12:52:33.175Z,36.04
2023-03-12T12:55:12.274Z,36.43
2023-03-12T12:57:45.956Z,34.70
2023-03-12T13:00:24.296Z,33.50
2023-03-12T13:02:59.828Z,33.58
2023-03-12T13:05:42.348Z,33.41
2023-03-12T13:08:58.266Z,32.95
2023-03-12T13:11:32.965Z,32.58
2023-03-12T13:14:30.222Z,30.58
2023-03-12T13:17:10.018Z,30.64
2023-03-12T13:19:51.955Z,31.75
2023-03-12T13:22:43.359Z,30.92
2023-03-12T13:25:27.009Z,31.49
2023-03-12T13:28:01.893Z,31.50
2023-03-12T13:30:53.294Z,32.78
2023-03-12T13:33:42.787Z,33.62
2023-03-12T13:36:30.693Z,32.96
2023-03-12T13:39:01.273Z,32.31
2023-03-12T13:41:35.234Z,33.38
2023-03-12T13:44:31.609Z,32.18
2023-03-12T13:47:05.460Z,32.80
2023-03-12T13:49:42.163Z,32.68
2023-03-12T13:52:22.821Z,31.51
2023-03-12T13:55:00.341Z,31.55
2023-03-12T13:57:42.910Z,31.60
2023-03-12T14:00:21.244Z,30.09
2023-03-12T14:02:55.679Z,30.69
2023-03-12T14:05:24.982Z,30.42
2023-03-12T14:08:19.210Z,30.03
2023-03-12T14:10:58.858Z,27.47
2023-03-12T14:13:40.986Z,27.31
2023-03-12T14:16:22.363Z,27.27
2023-03-12T14:18:52.466Z,28.34
2023-03-12T14:21:23.283Z,29.12
2023-03-12T14:23:56.521Z,29.08
2023-03-12T14:26:29.044Z,30.69
2023-03-12T14:29:03.614Z,30.88
2023-03-12T14:31:37.310Z,31.43
2023-03-12T14:34:11.017Z,28.93
2023-03-12T14:36:43.869Z,27.38
2023-03-12T14:39:23.543Z,28.81
2023-03-12T14:41:57.050Z,28.59
2023-03-12T14:44:27.395Z,27.83
2023-03-12T14:47:01.465Z,27.79
2023-03-12T14:49:33.917Z,30.52
2023-03-12T14:52:02.715Z,30.19
2023-03-12T14:54:31.433Z,27.65
2023-03-12T14:57:00.343Z,28.56
2023-03-12T14:59:31.997Z,29.03
2023-03-12T15:02:05.246Z,30.68
2023-03-12T15:04:35.843Z,29.48
2023-03-12T15:07:11.105Z,29.96
2023-03-12T15:09:44.036Z,29.93
2023-03-12T15:12:27.891Z,30.39
2023-03-12T15:14:56.944Z,31.25
2023-03-12T15:17:31.062Z,31.51
2023-03-12T15:19:59.866Z,31.86
2023-03-12T15:22:29.183Z,30.88
2023-03-12T15:24:59.238Z,30.40
2023-03-12T15:27:34.067Z,30.18
2023-03-12T15:30:04.801Z,29.88
2023-03-12T15:32:35.136Z,29.50
2023-03-12T15:35:14.298Z,28.37
2023-03-12T15:37:53.643Z,29.10
2023-03-12T15:40:25.968Z,30.01
2023-03-12T15:42:57.661Z,29.78
2023-03-12T15:45:37.871Z,30.98
2023-03-12T15:48:27.597Z,30.78
2023-03-12T15:50:56.205Z,31.75
2023-03-12T15:53:28.654Z,31.09
2023-03-12T15:56:05.521Z,32.39
2023-03-12T15:58:36.508Z,31.77
2023-03-12T16:01:10.902Z,31.88
2023-03-12T16:03:41.660Z,31.99
2023-03-12T16:06:14.354Z,31.86
2023-03-12T16:08:45.710Z,31.73
2023-03-12T16:11:17.817Z,32.10
2023-03-12T16:13:48.869Z,32.17
2023-03-12T16:16:18.324Z,32.67
2023-03-12T16:18:48.714Z,34.37
2023-03-12T16:21:17.690Z,34.53
2023-03-12T16:23:46.194Z,34.14
2023-03-12T16:26:16.287Z,35.82
2023-03-12T16:28:45.394Z,34.78
2023-03-12T16:31:15.011Z,35.27
2023-03-12T16:33:45.382Z,35.73
2023-03-12T16:36:19.461Z,36.18
2023-03-12T16:38:48.933Z,35.71
2023-03-12T16:41:19.439Z,35.90
2023-03-12T16:43:51.650Z,36.05
2023-03-12T16:46:23.227Z,36.05
2023-03-12T16:48:55.547Z,34.75
2023-03-12T16:51:28.409Z,35.75
2023-03-12T16:54:09.196Z,36.32
2023-03-12T16:56:38.842Z,36.91
2023-03-12T16:59:13.199Z,36.64
2023-03-12T17:01:41.540Z,36.72
2023-03-12T17:04:12.191Z,37.12
2023-03-12T17:06:42.073Z,37.72
2023-03-12T17:09:13.346Z,37.73
2023-03-12T17:11:42.174Z,39.77
2023-03-12T17:14:19.105Z,39.09
2023-03-12T17:16:47.863Z,39.12
2023-03-12T17:19:17.140Z,38.74
2023-03-12T17:21:48.134Z,38.83
2023-03-12T17:24:17.887Z,39.01
2023-03-12T17:26:52.068Z,39.08
2023-03-12T17:29:21.825Z,39.76
2023-03-12T17:31:53.766Z,39.71
2023-03-12T17:34:22.386Z,39.45
2023-03-12T17:36:53.275Z,40.06
2023-03-12T17:39:24.604Z,40.11
2023-03-12T17:41:53.863Z,40.61
2023-03-12T17:44:22.133Z,40.83
2023-03-12T17:46:59.647Z,41.24
2023-03-12T17:49:31.411Z,40.92
2023-03-12T17:53:22.294Z,40.96
2023-03-12T17:55:56.607Z,41.37
2023-03-12T17:58:26.834Z,42.75
2023-03-12T18:01:00.463Z,44.30
2023-03-12T18:03:29.010Z,44.31
2023-03-12T18:06:00.197Z,44.93
2023-03-12T18:08:29.189Z,46.09
2023-03-12T18:10:59.236Z,46.91
2023-03-12T18:13:31.356Z,47.51
2023-03-12T18:16:01.506Z,47.87
2023-03-12T18:18:32.957Z,48.84
2023-03-12T18:21:01.877Z,49.29
2023-03-12T18:23:32.832Z,50.09
2023-03-12T18:26:04.112Z,49.62
2023-03-12T18:28:35.526Z,49.33
2023-03-12T18:31:05.029Z,48.98
2023-03-12T18:33:36.406Z,52.96
2023-03-12T18:36:05.628Z,53.54
2023-03-12T18:38:36.629Z,54.40
2023-03-12T18:41:09.436Z,53.95
2023-03-12T18:43:39.764Z,54.00
2023-03-12T18:46:11.643Z,54.90
2023-03-12T18:48:44.284Z,55.94
2023-03-12T18:51:13.656Z,55.15
2023-03-12T18:53:46.022Z,53.89
2023-03-12T18:56:20.644Z,52.91
2023-03-12T18:58:48.657Z,52.83
2023-03-12T19:01:18.489Z,53.94
2023-03-12T19:03:48.123Z,54.30
2023-03-12T19:06:18.380Z,53.01
2023-03-12T19:08:48.694Z,55.85
2023-03-12T19:11:20.967Z,57.31
2023-03-12T19:13:53.247Z,60.37
2023-03-12T19:16:23.422Z,61.31
2023-03-12T19:18:53.912Z,61.04
2023-03-12T19:21:24.605Z,60.26
2023-03-12T19:23:55.721Z,58.81
2023-03-12T19:26:27.015Z,59.04
2023-03-12T19:28:55.690Z,59.09
2023-03-12T19:31:26.625Z,59.11
2023-03-12T19:33:55.659Z,59.33
2023-03-12T19:36:24.355Z,59.82
2023-03-12T19:38:53.182Z,58.91
2023-03-12T19:41:23.286Z,60.29
2023-03-12T19:43:53.291Z,60.68
2023-03-12T19:46:22.407Z,60.53
2023-03-12T19:48:51.642Z,61.15
2023-03-12T19:51:21.664Z,61.28
2023-03-12T19:53:51.732Z,59.68
2023-03-12T19:56:21.087Z,59.94
2023-03-12T19:58:50.480Z,61.47
2023-03-12T20:01:21.861Z,63.34
2023-03-12T20:03:50.437Z,64.03
2023-03-12T20:06:18.705Z,63.37
2023-03-12T20:08:49.271Z,64.68
2023-03-12T20:11:18.060Z,65.61
2023-03-12T20:13:46.996Z,65.30
2023-03-12T20:16:15.445Z,66.52
2023-03-12T20:18:45.605Z,65.88
2023-03-12T20:21:14.090Z,65.48
2023-03-12T20:23:44.476Z,65.91
2023-03-12T20:26:14.806Z,65.60
2023-03-12T20:28:43.220Z,65.64
2023-03-12T20:31:12.949Z,66.56
2023-03-12T20:33:41.674Z,66.63
2023-03-12T20:36:14.354Z,67.04
2023-03-12T20:38:42.828Z,67.61
2023-03-12T20:41:14.147Z,67.35
2023-03-12T20:43:43.089Z,67.86
2023-03-12T20:46:12.064Z,66.33
2023-03-12T20:48:40.886Z,66.40
2023-03-12T20:51:13.933Z,66.94
2023-03-12T20:53:42.486Z,65.54
2023-03-12T20:56:11.618Z,66.34
2023-03-12T20:58:40.346Z,66.90
2023-03-12T21:01:09.166Z,67.28
2023-03-12T21:03:37.520Z,68.52
2023-03-12T21:06:07.210Z,69.99
2023-03-12T21:08:37.145Z,69.94
2023-03-12T21:11:06.873Z,69.03
2023-03-12T21:13:37.418Z,68.33
2023-03-12T21:16:07.093Z,67.81
2023-03-12T21:18:35.755Z,68.13
2023-03-12T21:21:07.257Z,67.03
2023-03-12T21:23:40.918Z,68.35
2023-03-12T21:26:12.932Z,69.21
2023-03-12T21:28:41.762Z,70.05
2023-03-12T21:31:12.164Z,70.45
2023-03-12T21:33:41.191Z,70.76
2023-03-12T21:36:11.465Z,71.05
2023-03-12T21:38:45.132Z,71.56
2023-03-12T21:41:17.625Z,69.99
2023-03-12T21:43:47.521Z,70.18
2023-03-12T21:46:19.465Z,71.12
2023-03-12T21:48:49.406Z,66.79
2023-03-12T21:51:19.198Z,67.53
2023-03-12T21:53:53.199Z,66.23
2023-03-12T21:56:21.345Z,64.54
2023-03-12T21:58:50.467Z,63.45
2023-03-12T22:01:20.572Z,62.36
2023-03-12T22:03:49.418Z,63.54
2023-03-12T22:06:18.370Z,62.83
2023-03-12T22:08:49.529Z,60.20
2023-03-12T22:11:18.120Z,62.21
2023-03-12T22:13:46.445Z,61.42
2023-03-12T22:16:16.380Z,59.72
2023-03-12T22:18:46.799Z,59.99
2023-03-12T22:21:18.822Z,59.44
2023-03-12T22:23:51.017Z,59.32
2023-03-12T22:26:24.723Z,60.16
2023-03-12T22:28:58.065Z,59.51
2023-03-12T22:31:27.967Z,59.55
2023-03-12T22:33:59.931Z,59.28
2023-03-12T22:36:28.617Z,59.71
2023-03-12T22:39:00.581Z,59.08
2023-03-12T22:41:30.786Z,59.38
2023-03-12T22:44:04.184Z,59.49
2023-03-12T22:46:33.329Z,59.64
2023-03-12T22:49:04.053Z,59.91
2023-03-12T22:51:33.750Z,59.45
2023-03-12T22:54:04.826Z,60.35
2023-03-12T22:56:33.102Z,60.83
2023-03-12T22:59:01.428Z,60.55
2023-03-12T23:01:30.080Z,61.30
2023-03-12T23:04:00.100Z,61.49
2023-03-12T23:06:30.154Z,61.70
2023-03-12T23:08:59.452Z,62.68
2023-03-12T23:11:30.814Z,61.45
2023-03-12T23:14:00.697Z,61.13
2023-03-12T23:16:30.056Z,61.95
2023-03-12T23:18:58.302Z,62.32
2023-03-12T23:21:27.819Z,62.39
2023-03-12T23:24:01.187Z,63.63
2023-03-12T23:26:32.132Z,63.90
2023-03-12T23:29:00.586Z,63.53
2023-03-12T23:31:31.641Z,64.66
2023-03-12T23:34:02.035Z,64.08
2023-03-12T23:36:30.878Z,66.30
2023-03-12T23:39:01.524Z,65.26
2023-03-12T23:41:34.321Z,64.93
2023-03-12T23:44:02.778Z,65.45
2023-03-12T23:46:31.232Z,64.36
2023-03-12T23:49:04.831Z,64.14
2023-03-12T23:51:36.560Z,63.85
2023-03-12T23:54:07.269Z,63.27
2023-03-12T23:56:39.424Z,63.37
2023-03-12T23:59:15.933Z,63.17
